createdAt,value
2023-05-15T00:01:56.793Z,21.00
2023-05-15T00:06:58.930Z,21.10
2023-05-15T00:12:00.930Z,21.40
2023-05-15T00:17:02.995Z,21.60
2023-05-15T00:22:05.183Z,21.60
2023-05-15T00:27:07.469Z,21.80
2023-05-15T00:32:09.508Z,21.80
2023-05-15T00:37:11.571Z,21.90
2023-05-15T00:42:15.324Z,22.10
2023-05-15T00:47:17.486Z,22.00
2023-05-15T00:52:20.681Z,22.30
2023-05-15T00:57:23.998Z,22.50
2023-05-15T01:02:27.085Z,22.50
2023-05-15T01:07:34.709Z,22.60
2023-05-15T01:12:38.259Z,22.60
2023-05-15T01:17:40.584Z,22.70
2023-05-15T01:23:17.814Z,22.60
2023-05-15T01:28:28.224Z,22.70
2023-05-15T01:33:34.269Z,22.80
2023-05-15T01:38:36.350Z,22.60
2023-05-15T01:43:40.120Z,22.80
2023-05-15T01:48:45.249Z,22.90
2023-05-15T01:53:47.926Z,23.00
2023-05-15T01:58:50.379Z,23.00
2023-05-15T02:03:52.999Z,23.20
2023-05-15T02:08:57.293Z,23.10
2023-05-15T02:14:01.358Z,23.10
2023-05-15T02:19:03.447Z,23.10
2023-05-15T02:24:05.704Z,23.10
2023-05-15T02:29:10.629Z,23.10
2023-05-15T02:34:12.638Z,23.10
2023-05-15T02:39:15.859Z,23.00
2023-05-15T02:44:18.358Z,23.10
2023-05-15T02:49:21.332Z,23.10
2023-05-15T02:54:23.402Z,23.10
2023-05-15T02:59:25.470Z,23.10
2023-05-15T03:04:27.805Z,23.10
2023-05-15T03:09:29.847Z,23.30
2023-05-15T03:14:31.839Z,23.30
2023-05-15T03:19:33.822Z,23.50
2023-05-15T03:24:35.887Z,23.50
2023-05-15T03:29:38.552Z,23.60
2023-05-15T03:34:41.207Z,23.60
2023-05-15T03:39:43.356Z,23.60
2023-05-15T03:44:46.944Z,23.60
2023-05-15T03:49:48.894Z,23.70
2023-05-15T03:54:50.946Z,23.80
2023-05-15T03:59:53.192Z,23.70
2023-05-15T04:04:55.218Z,23.90
2023-05-15T04:09:57.260Z,24.00
2023-05-15T04:14:59.856Z,24.20
2023-05-15T04:20:01.855Z,24.40
2023-05-15T04:25:04.724Z,24.50
2023-05-15T04:30:07.624Z,24.80
2023-05-15T04:35:12.000Z,24.90
2023-05-15T04:40:16.235Z,25.10
2023-05-15T04:45:18.803Z,25.30
2023-05-15T04:50:20.896Z,25.40
2023-05-15T04:55:23.049Z,25.60
2023-05-15T05:00:25.274Z,25.70
2023-05-15T05:05:27.412Z,25.80
2023-05-15T05:10:29.370Z,26.00
2023-05-15T05:15:31.466Z,26.00
2023-05-15T05:20:33.538Z,26.10
2023-05-15T05:25:35.530Z,26.40
2023-05-15T05:30:37.565Z,26.50
2023-05-15T05:35:39.574Z,26.50
2023-05-15T05:40:41.585Z,26.60
2023-05-15T05:45:43.603Z,26.40
2023-05-15T05:50:45.737Z,26.50
2023-05-15T05:55:47.839Z,26.40
2023-05-15T06:00:49.857Z,26.30
2023-05-15T06:05:52.939Z,26.40
2023-05-15T06:10:55.585Z,26.40
2023-05-15T06:15:57.561Z,26.20
2023-05-15T06:21:00.388Z,26.10
2023-05-15T06:26:02.449Z,25.60
2023-05-15T06:31:04.599Z,25.00
2023-05-15T06:36:06.724Z,24.80
2023-05-15T06:41:08.676Z,24.30
2023-05-15T06:46:10.786Z,24.00
2023-05-15T06:51:12.912Z,23.80
2023-05-15T06:56:14.941Z,23.30
2023-05-15T07:01:16.985Z,23.00
2023-05-15T07:06:18.978Z,22.90
2023-05-15T07:11:20.961Z,22.00
2023-05-15T07:16:22.991Z,22.10
2023-05-15T07:21:24.984Z,21.50
2023-05-15T07:26:34.171Z,21.70
2023-05-15T07:31:41.940Z,21.60
2023-05-15T07:36:44.254Z,21.20
2023-05-15T07:41:47.241Z,21.30
2023-05-15T07:46:49.282Z,20.70
2023-05-15T07:51:51.293Z,20.50
2023-05-15T07:56:54.029Z,20.00
2023-05-15T08:06:58.788Z,19.30
2023-05-15T08:12:21.100Z,18.50
2023-05-15T08:17:24.580Z,18.50
2023-05-15T08:22:26.567Z,18.20
2023-05-15T08:27:28.576Z,18.00
2023-05-15T08:32:30.668Z,18.00
2023-05-15T08:37:33.552Z,17.60
2023-05-15T08:42:37.854Z,17.30
2023-05-15T08:47:41.540Z,17.10
2023-05-15T08:52:47.870Z,16.30
2023-05-15T08:57:50.558Z,16.00
2023-05-15T09:02:53.895Z,16.00
2023-05-15T09:07:56.585Z,16.00
2023-05-15T09:12:59.211Z,16.00
2023-05-15T09:18:01.489Z,16.00
2023-05-15T09:23:04.815Z,16.30
2023-05-15T09:28:26.120Z,15.70
2023-05-15T09:33:29.354Z,15.70
2023-05-15T09:38:35.021Z,15.20
2023-05-15T09:43:38.552Z,14.90
2023-05-15T09:48:40.689Z,14.20
2023-05-15T09:53:42.876Z,14.20
2023-05-15T09:58:54.484Z,12.60
2023-05-15T10:04:00.645Z,12.70
2023-05-15T10:09:03.369Z,12.60
2023-05-15T10:14:06.171Z,12.50
2023-05-15T10:19:10.135Z,12.00
2023-05-15T10:24:12.382Z,12.10
2023-05-15T10:29:15.181Z,11.50
2023-05-15T10:34:18.577Z,11.00
2023-05-15T10:39:20.715Z,10.50
2023-05-15T10:44:23.402Z,9.70
2023-05-15T10:49:25.807Z,9.80
2023-05-15T10:54:28.462Z,9.70
2023-05-15T10:59:34.748Z,9.00
2023-05-15T11:04:37.549Z,9.30
2023-05-15T11:09:40.313Z,9.50
2023-05-15T11:14:43.240Z,9.50
2023-05-15T11:19:51.403Z,9.30
2023-05-15T11:25:04.888Z,8.60
2023-05-15T11:30:06.978Z,7.80
2023-05-15T11:35:32.464Z,6.60
2023-05-15T11:40:43.582Z,5.40
2023-05-15T11:45:46.762Z,5.20
2023-05-15T11:50:49.210Z,5.00
2023-05-15T11:55:52.425Z,4.20
2023-05-15T12:00:54.694Z,4.10
2023-05-15T12:06:00.100Z,3.60
2023-05-15T12:11:02.983Z,3.40
2023-05-15T12:16:05.853Z,3.60
2023-05-15T12:21:10.823Z,2.70
2023-05-15T12:26:13.370Z,2.90
2023-05-15T12:31:17.381Z,1.70
2023-05-15T12:36:22.501Z,2.10
2023-05-15T12:41:28.999Z,2.60
2023-05-15T12:46:31.905Z,1.00
2023-05-15T12:51:34.133Z,1.00
2023-05-15T12:56:36.077Z,1.00
2023-05-15T13:01:42.151Z,1.00
2023-05-15T13:06:47.304Z,1.00
2023-05-15T13:11:50.716Z,1.00
2023-05-15T13:16:53.084Z,1.00
2023-05-15T13:21:55.205Z,1.00
2023-05-15T13:26:57.177Z,1.00
2023-05-15T13:31:59.260Z,1.00
2023-05-15T13:37:01.529Z,1.00
2023-05-15T13:42:03.654Z,1.00
2023-05-15T13:47:05.893Z,1.00
2023-05-15T13:52:08.004Z,1.00
2023-05-15T13:57:10.052Z,1.00
2023-05-15T14:02:12.056Z,1.00
2023-05-15T14:07:14.096Z,1.00
2023-05-15T14:12:16.125Z,1.00
2023-05-15T14:17:21.114Z,1.00
2023-05-15T14:22:24.819Z,1.00
2023-05-15T14:27:27.171Z,1.00
2023-05-15T14:32:29.189Z,1.00
2023-05-15T14:37:31.379Z,1.00
2023-05-15T14:42:33.355Z,1.00
2023-05-15T14:47:35.529Z,1.00
2023-05-15T14:52:37.630Z,1.00
2023-05-15T14:57:39.672Z,1.00
2023-05-15T15:02:45.990Z,1.00
2023-05-15T15:08:07.728Z,1.00
2023-05-15T15:13:11.611Z,1.00
2023-05-15T15:18:13.614Z,1.00
2023-05-15T15:23:15.922Z,1.00
2023-05-15T15:28:17.882Z,1.10
2023-05-15T15:33:19.826Z,1.20
2023-05-15T15:38:21.886Z,1.00
2023-05-15T15:43:23.894Z,1.10
2023-05-15T15:48:26.005Z,1.00
2023-05-15T15:53:28.005Z,1.00
2023-05-15T15:58:30.072Z,1.00
2023-05-15T16:03:32.209Z,1.10
2023-05-15T16:08:34.246Z,3.50
2023-05-15T16:13:36.304Z,4.80
2023-05-15T16:18:38.381Z,6.20
2023-05-15T16:23:41.355Z,8.20
2023-05-15T16:33:46.567Z,10.90
2023-05-15T16:38:48.681Z,10.80
2023-05-15T16:43:50.873Z,12.10
2023-05-15T16:48:52.940Z,12.60
2023-05-15T16:53:56.472Z,13.30
2023-05-15T16:58:58.465Z,13.80
2023-05-15T17:04:00.572Z,14.80
2023-05-15T17:09:02.727Z,15.40
2023-05-15T17:14:04.848Z,15.90
2023-05-15T17:19:06.925Z,16.30
2023-05-15T17:24:09.009Z,16.90
2023-05-15T17:29:11.004Z,17.20
2023-05-15T17:34:13.233Z,17.20
2023-05-15T17:39:15.342Z,17.70
2023-05-15T17:44:17.418Z,17.90
2023-05-15T17:49:19.440Z,18.10
2023-05-15T17:54:21.410Z,18.40
2023-05-15T17:59:23.416Z,18.50
2023-05-15T18:04:25.551Z,18.60
2023-05-15T18:09:27.752Z,18.80
2023-05-15T18:19:32.567Z,19.30
2023-05-15T18:24:34.601Z,19.60
2023-05-15T18:29:36.601Z,19.70
2023-05-15T18:34:38.651Z,19.80
2023-05-15T18:39:42.855Z,19.60
2023-05-15T18:44:44.823Z,19.90
2023-05-15T18:49:46.873Z,20.10
2023-05-15T18:54:48.839Z,20.50
2023-05-15T18:59:50.887Z,21.20
2023-05-15T19:04:53.012Z,21.10
2023-05-15T19:09:55.005Z,21.40
2023-05-15T19:14:57.005Z,21.30
2023-05-15T19:19:58.985Z,21.00
2023-05-15T19:25:01.012Z,20.90
2023-05-15T19:30:03.479Z,21.20
2023-05-15T19:35:05.738Z,21.40
2023-05-15T19:40:08.524Z,21.30
2023-05-15T19:45:10.787Z,21.40
2023-05-15T19:50:12.950Z,21.60
2023-05-15T19:55:15.653Z,21.60
2023-05-15T20:00:20.066Z,21.60
2023-05-15T20:05:22.247Z,21.60
2023-05-15T20:10:24.652Z,21.60
2023-05-15T20:20:32.801Z,21.90
2023-05-15T20:25:39.314Z,21.90
2023-05-15T20:31:29.171Z,22.20
2023-05-15T20:36:34.947Z,22.20
2023-05-15T20:41:37.723Z,22.70
2023-05-15T20:46:40.136Z,22.80
2023-05-15T20:51:44.373Z,23.00
2023-05-15T20:56:46.619Z,23.00
2023-05-15T21:01:49.144Z,23.30
2023-05-15T21:11:54.384Z,23.60
2023-05-15T21:16:56.825Z,23.60
2023-05-15T21:27:01.345Z,23.70
2023-05-15T21:32:03.700Z,23.90
2023-05-15T21:37:05.934Z,23.60
2023-05-15T21:42:08.051Z,23.50
2023-05-15T21:47:10.043Z,23.30
2023-05-15T21:52:12.189Z,23.20
2023-05-15T21:57:14.285Z,23.10
2023-05-15T22:02:16.274Z,22.90
2023-05-15T22:07:18.518Z,23.00
2023-05-15T22:12:21.001Z,23.00
2023-05-15T22:17:23.828Z,22.90
2023-05-15T22:22:25.835Z,23.10
2023-05-15T22:27:28.217Z,23.10
2023-05-15T22:32:30.308Z,23.30
2023-05-15T22:37:32.334Z,23.50
2023-05-15T22:42:34.440Z,23.50
2023-05-15T22:47:36.856Z,23.50
2023-05-15T22:52:38.936Z,23.60
2023-05-15T22:57:40.909Z,23.70
2023-05-15T23:02:44.858Z,23.70
2023-05-15T23:07:47.470Z,23.80
2023-05-15T23:12:49.533Z,24.00
2023-05-15T23:17:51.946Z,24.20
2023-05-15T23:22:54.121Z,24.20
2023-05-15T23:27:56.459Z,24.30
2023-05-15T23:32:58.607Z,24.20
2023-05-15T23:38:00.619Z,24.20
2023-05-15T23:43:02.686Z,24.50
2023-05-15T23:48:04.710Z,24.50
2023-05-15T23:53:07.457Z,24.60
2023-05-15T23:58:09.557Z,24.70
